Carp, Canada
Current Conditions -  °F | °C
As of 4:00 PM on Thursday 23 Oct 2014 (Local Time) from CYOW Reporting Station
Broken Clouds Broken Clouds  
Wind Chill: 54°   Ceiling: 2700
Heat Index: 54°   Visibility: 15mi
Dew Point: 46°   Wind: 8mph
Humidity: 77%   Direction: 30°NNE
Pressure: 30.02"   Gusts: NA
Location:  45.35°N, 76.03°W
Report Text: CYOW 232000Z 03007KT 15SM BKN027 12/08 A3002 RMK SC7 SLP168
Loading
Personal Weather Stations






























Interactive Weather Map
Tropical Storm Tracking
New forecast layout! Learn more

10-Day Weather Forecast

Advertisements
Track Severe Weather on mobile